Como, TN

6:54 AM CDT on August 31, 2014 (GMT -0500)
Kyle-Oakley | Change Station
CLOSE
Current Station
Airport
Location: Murray,
Elevation: 577 ft
Nearby Weather Stations

Elev 577 ft 36.66 °N, 88.37 °W | Updated 19 minutes ago

Thunderstorm
Thunderstorm
70 °F
Feels Like 70 °F
N
8
Wind Variable Wind from South
Gusts mph

Today
High -- | Low -- °F
--% Chance of Precip.
Yesterday
High -- | Low -- °F
Precip. -- in
6:24 AM 7:23 PM
Waxing Crescent, 30% visible
Pressure 30.02 in
Visibility 8.0 miles
Clouds
Dew Point 70 °F
Humidity 100%
Rainfall 0.73 in
Snow Depth Not available.
UV Not available.
Pollen 3.80 out of 12
Air Quality Not available.
Flu Activity Not available.
METAR KCEY 311135Z AUTO 18007KT 8SM 21/21 A3002 RMK AO1 P0016

More Conditions Fewer Conditions

Pressure 30.02 in
Visibility 8.0 miles
Clouds
Dew Point 70 °F
Humidity 100%
Rainfall 0.73 in
Snow Depth Not available.
UV Not available.
Pollen 3.80 out of 12
Air Quality Not available.
Flu Activity Not available.
METAR KCEY 311135Z AUTO 18007KT 8SM 21/21 A3002 RMK AO1 P0016

More Conditions Fewer Conditions

10-Day Weather Forecast

Almanac

Astronomy

Aug. 31, 2014 Rise Set
Actual Time 6:24 AM CDT 7:23 PM CDT
Civil Twilight 5:58 AM CDT 7:49 PM CDT
Nautical Twilight 5:26 AM CDT 8:20 PM CDT
Astronomical Twilight 4:54 AM CDT 8:52 PM CDT
Moon 12:00 PM CDT 10:48 PM CDT
Length of Visible Light 13h 51m
Length of Day
12h 58m
Tomorrow will be 2m 12s shorter.
Waxing Crescent, 30% of the Moon is Illuminated
Today
Waxing Crescent
Sep 2
First Quarter
Sep 8
Full
Sep 15
Last Quarter
Sep 24
New

Today's Extremes

State Highs State Lows

Community

WunderPhotos

Upload Photos

1,748,848 photos uploaded!

Nearby

Snow Depth

Station Depth Elevation
No new snow has been reported.

Earthquake Activity

City Distance Mag. Time & Date
No recent earthquake activity has been reported nearby.
Minimum magnitude displayed is 2.5.

Coastal Water Temperatures

Place Temperature
No Stations Reporting

Nearby Weather Stations